LIMP/PMF METAR and TAF weather

Enter ICAO airport designator
Station Type Date Time Source
LIMP METAR 2020/07/09 20:50 UTC NOAA

LIMP 092050Z 28002KT CAVOK 23/19 Q1015


Station Type Date Time Source
LIMP Decoded METAR 2020/07/09 20:50 UTC NOAA

Parma, Italy (LIMP) 44-49-17N 010-17-41E
Jul 09, 2020 - 04:50 PM EDT / 2020.07.09 2050 UTC
Wind: from the W (280 degrees) at 2 MPH (2 KT):0
Visibility: greater than 7 mile(s):0
Temperature: 73 F (23 C)
Dew Point: 66 F (19 C)
Relative Humidity: 78%
Pressure (altimeter): 29.97 in. Hg (1015 hPa)
ob: LIMP 092050Z 28002KT CAVOK 23/19 Q1015
cycle: 21

Station Type Date Time Source
LIMP TAF 2020/07/09 18:21 UTC NOAA

TAF LIMP 091700Z 0918/1018 VRB05KT CAVOK

Example: see airport list